createdAt,value
2019-03-04T00:01:26.634Z,99363.55
2019-03-04T00:03:56.589Z,99351.16
2019-03-04T00:06:26.588Z,99337.92
2019-03-04T00:08:56.576Z,99348.02
2019-03-04T00:11:26.535Z,99338.26
2019-03-04T00:13:56.505Z,99327.67
2019-03-04T00:16:26.535Z,99326.69
2019-03-04T00:18:56.519Z,99328.34
2019-03-04T00:21:26.845Z,99323.70
2019-03-04T00:23:56.787Z,99310.48
2019-03-04T00:26:26.733Z,99303.38
2019-03-04T00:28:56.761Z,99291.47
2019-03-04T00:31:27.432Z,99283.20
2019-03-04T00:33:57.427Z,99282.71
2019-03-04T00:36:27.383Z,99267.67
2019-03-04T00:38:57.684Z,99257.58
2019-03-04T00:41:29.120Z,99247.83
2019-03-04T00:43:59.088Z,99233.78
2019-03-04T00:46:28.987Z,99231.14
2019-03-04T00:48:59.370Z,99217.09
2019-03-04T00:51:29.301Z,99211.30
2019-03-04T00:53:59.367Z,99194.11
2019-03-04T00:56:29.790Z,99219.56
2019-03-04T00:58:59.701Z,99209.61
2019-03-04T01:01:29.703Z,99197.36
2019-03-04T01:03:59.683Z,99184.13
2019-03-04T01:06:29.961Z,99204.30
2019-03-04T01:08:59.936Z,99225.94
2019-03-04T01:11:29.927Z,99249.58
2019-03-04T01:13:59.851Z,99229.53
2019-03-04T01:16:30.416Z,99216.47
2019-03-04T01:19:00.363Z,99235.81
2019-03-04T01:21:30.634Z,99219.61
2019-03-04T01:24:00.622Z,99232.52
2019-03-04T01:26:31.997Z,99232.72
2019-03-04T01:29:01.983Z,99227.92
2019-03-04T01:31:32.406Z,99221.98
2019-03-04T01:34:02.307Z,99226.77
2019-03-04T01:36:32.198Z,99230.73
2019-03-04T01:39:02.187Z,99202.30
2019-03-04T01:41:33.784Z,99208.59
2019-03-04T01:44:03.745Z,99176.52
2019-03-04T01:46:34.038Z,99155.03
2019-03-04T01:49:04.330Z,99146.44
2019-03-04T01:51:34.640Z,99107.43
2019-03-04T01:54:04.731Z,99111.07
2019-03-04T01:56:34.715Z,99170.59
2019-03-04T01:59:04.739Z,99130.08
2019-03-04T02:01:34.732Z,99083.30
2019-03-04T02:04:05.045Z,99081.65
2019-03-04T02:06:34.997Z,99075.03
2019-03-04T02:09:06.777Z,99131.41
2019-03-04T02:11:38.517Z,99119.00
2019-03-04T02:14:09.103Z,99076.19
2019-03-04T02:16:39.360Z,99065.28
2019-03-04T02:19:11.067Z,99061.69
2019-03-04T02:21:41.439Z,99044.67
2019-03-04T02:24:23.866Z,99039.06
2019-03-04T02:26:55.311Z,99017.90
2019-03-04T02:29:25.380Z,99028.16
2019-03-04T02:31:55.317Z,99008.31
2019-03-04T02:34:25.277Z,98986.48
2019-03-04T02:36:55.230Z,98969.62
2019-03-04T02:39:25.155Z,98962.51
2019-03-04T02:41:55.128Z,98939.38
2019-03-04T02:44:25.147Z,98939.88
2019-03-04T02:46:55.097Z,98930.95
2019-03-04T02:49:25.284Z,98930.95
2019-03-04T02:51:55.608Z,98911.11
2019-03-04T02:54:25.935Z,98926.48
2019-03-04T02:56:56.000Z,98927.24
2019-03-04T02:59:25.923Z,98919.28
2019-03-04T03:01:55.832Z,98908.31
2019-03-04T03:04:25.817Z,98902.81
2019-03-04T03:06:56.115Z,98913.22
2019-03-04T03:09:26.133Z,98909.57
2019-03-04T03:11:56.094Z,98903.75
2019-03-04T03:14:26.124Z,98885.05
2019-03-04T03:16:55.991Z,98875.61
2019-03-04T03:19:25.873Z,98881.26
2019-03-04T03:21:55.832Z,98863.20
2019-03-04T03:24:25.703Z,98840.85
2019-03-04T03:26:55.689Z,98833.84
2019-03-04T03:29:26.408Z,98815.64
2019-03-04T03:31:56.309Z,98808.52
2019-03-04T03:34:27.644Z,98800.59
2019-03-04T03:36:57.857Z,98770.16
2019-03-04T03:39:27.947Z,98764.18
2019-03-04T03:41:57.950Z,98745.93
2019-03-04T03:44:29.393Z,98749.63
2019-03-04T03:46:59.345Z,98723.53
2019-03-04T03:49:29.247Z,98697.16
2019-03-04T03:51:59.261Z,98720.33
2019-03-04T03:54:29.237Z,98710.75
2019-03-04T03:56:59.207Z,98718.69
2019-03-04T03:59:29.184Z,98713.71
2019-03-04T04:01:59.871Z,98695.51
2019-03-04T04:04:29.798Z,98677.94
2019-03-04T04:07:00.194Z,98669.92
2019-03-04T04:09:30.164Z,98700.44
2019-03-04T04:12:00.139Z,98684.23
2019-03-04T04:14:30.480Z,98663.01
2019-03-04T04:17:00.394Z,98668.99
2019-03-04T04:19:30.999Z,98622.36
2019-03-04T04:22:01.300Z,98664.39
2019-03-04T04:24:31.278Z,98647.00
2019-03-04T04:27:01.261Z,98665.16
2019-03-04T04:29:31.485Z,98658.80
2019-03-04T04:32:01.729Z,98649.29
2019-03-04T04:34:36.550Z,98648.34
2019-03-04T04:37:06.692Z,98664.91
2019-03-04T04:39:37.349Z,98653.38
2019-03-04T04:42:07.296Z,98663.64
2019-03-04T04:44:37.257Z,98675.23
2019-03-04T04:47:09.640Z,98633.58
2019-03-04T04:49:39.788Z,98659.41
2019-03-04T04:52:09.809Z,98666.22
2019-03-04T04:54:39.857Z,98655.12
2019-03-04T04:57:09.791Z,98626.78
2019-03-04T04:59:39.691Z,98617.27
2019-03-04T05:02:09.663Z,98620.78
2019-03-04T05:04:39.638Z,98610.38
2019-03-04T05:07:09.640Z,98611.89
2019-03-04T05:09:39.612Z,98586.34
2019-03-04T05:12:11.100Z,98557.30
2019-03-04T05:14:41.492Z,98572.48
2019-03-04T05:17:11.924Z,98573.86
2019-03-04T05:19:42.506Z,98580.97
2019-03-04T05:22:14.740Z,98575.87
2019-03-04T05:24:48.772Z,98569.31
2019-03-04T05:27:21.404Z,98571.54
2019-03-04T05:29:53.245Z,98557.81
2019-03-04T05:32:28.438Z,98558.13
2019-03-04T05:34:59.506Z,98579.58
2019-03-04T05:37:29.743Z,98563.70
2019-03-04T05:39:59.761Z,98554.45
2019-03-04T05:42:29.710Z,98551.42
2019-03-04T05:44:59.592Z,98545.50
2019-03-04T05:47:29.518Z,98532.28
2019-03-04T05:49:59.507Z,98529.63
2019-03-04T05:52:30.964Z,98522.20
2019-03-04T05:55:00.882Z,98526.67
2019-03-04T05:57:32.358Z,98519.68
2019-03-04T06:00:02.429Z,98516.72
2019-03-04T06:02:32.653Z,98524.28
2019-03-04T06:05:02.724Z,98526.05
2019-03-04T06:07:54.431Z,98536.58
2019-03-04T06:10:24.415Z,98545.93
2019-03-04T06:12:54.354Z,98541.27
2019-03-04T06:15:24.350Z,98556.77
2019-03-04T06:17:54.387Z,98696.97
2019-03-04T06:20:24.394Z,98700.09
2019-03-04T06:22:54.663Z,98755.74
2019-03-04T06:25:26.682Z,98706.22
2019-03-04T06:27:57.597Z,98742.53
2019-03-04T06:30:28.213Z,98723.99
2019-03-04T06:32:58.188Z,98724.81
2019-03-04T06:35:28.222Z,98726.81
2019-03-04T06:37:58.188Z,98697.35
2019-03-04T06:40:28.236Z,98704.45
2019-03-04T06:42:58.319Z,98679.28
2019-03-04T06:45:28.381Z,98656.92
2019-03-04T06:47:58.399Z,98652.95
2019-03-04T06:51:03.924Z,98635.70
2019-03-04T06:54:24.068Z,98650.17
2019-03-04T06:56:58.647Z,98698.50
2019-03-04T07:00:09.815Z,98660.98
2019-03-04T07:02:39.960Z,98628.45
2019-03-04T07:05:44.487Z,98612.67
2019-03-04T07:09:07.747Z,98625.02
2019-03-04T07:11:40.193Z,98614.66
2019-03-04T07:14:10.216Z,98632.27
2019-03-04T07:16:40.189Z,98616.97
2019-03-04T07:19:16.418Z,98611.39
2019-03-04T07:21:46.978Z,98626.17
2019-03-04T07:24:17.029Z,98641.80
2019-03-04T07:26:47.465Z,98708.69
2019-03-04T07:29:17.435Z,98685.36
2019-03-04T07:31:47.454Z,98678.45
2019-03-04T07:34:17.456Z,98650.50
2019-03-04T07:36:48.206Z,98662.02
2019-03-04T07:39:19.905Z,98654.62
2019-03-04T07:41:51.857Z,98644.56
2019-03-04T07:44:21.883Z,98653.78
2019-03-04T07:46:51.885Z,98680.09
2019-03-04T07:49:21.862Z,98636.33
2019-03-04T07:51:51.937Z,98640.60
2019-03-04T07:54:21.812Z,98651.92
2019-03-04T07:56:51.796Z,98658.67
2019-03-04T07:59:25.188Z,98684.30
2019-03-04T08:01:55.159Z,98667.84
2019-03-04T08:04:26.154Z,98659.95
2019-03-04T08:07:24.729Z,98665.70
2019-03-04T08:10:10.899Z,98674.76
2019-03-04T08:12:58.630Z,98674.09
2019-03-04T08:15:38.836Z,98694.50
2019-03-04T08:18:08.875Z,98685.25
2019-03-04T08:20:38.839Z,98658.91
2019-03-04T08:23:10.232Z,98694.47
2019-03-04T08:25:41.176Z,98724.43
2019-03-04T08:28:12.962Z,98707.31
2019-03-04T08:30:43.636Z,98711.09
2019-03-04T08:33:13.764Z,98715.87
2019-03-04T08:35:43.779Z,98704.70
2019-03-04T08:38:14.168Z,98713.59
2019-03-04T08:40:44.236Z,98717.05
2019-03-04T08:43:14.551Z,98722.13
2019-03-04T08:45:45.804Z,98722.13
2019-03-04T08:48:15.860Z,98715.05
2019-03-04T08:50:45.810Z,98716.16
2019-03-04T08:53:15.850Z,98711.57
2019-03-04T08:55:45.797Z,98702.97
2019-03-04T08:58:15.840Z,98702.46
2019-03-04T09:00:45.849Z,98706.91
2019-03-04T09:03:15.832Z,98704.22
2019-03-04T09:05:46.044Z,98691.02
2019-03-04T09:08:16.077Z,98683.22
2019-03-04T09:10:46.187Z,98702.80
2019-03-04T09:13:16.533Z,98703.72
2019-03-04T09:15:46.849Z,98717.19
2019-03-04T09:18:16.793Z,98719.48
2019-03-04T09:20:46.823Z,98739.59
2019-03-04T09:23:16.914Z,98704.30
2019-03-04T09:25:50.962Z,98715.44
2019-03-04T09:28:20.819Z,98703.04
2019-03-04T09:30:50.722Z,98715.72
2019-03-04T09:33:21.644Z,98703.67
2019-03-04T09:35:51.638Z,98700.50
2019-03-04T09:38:21.625Z,98707.72
2019-03-04T09:40:51.958Z,98719.23
2019-03-04T09:43:25.240Z,98733.98
2019-03-04T09:45:55.226Z,98729.29
2019-03-04T09:48:26.175Z,98708.81
2019-03-04T09:50:56.165Z,98715.09
2019-03-04T09:53:26.391Z,98691.66
2019-03-04T09:55:56.346Z,98698.90
2019-03-04T09:58:27.396Z,98738.00
2019-03-04T10:01:08.756Z,98694.94
2019-03-04T10:04:06.516Z,98688.36
2019-03-04T10:06:47.221Z,98678.77
2019-03-04T10:09:52.475Z,98667.33
2019-03-04T10:12:52.297Z,98685.02
2019-03-04T10:15:49.727Z,98665.42
2019-03-04T10:18:37.001Z,98665.83
2019-03-04T10:21:25.270Z,98662.33
2019-03-04T10:24:31.903Z,98649.97
2019-03-04T10:27:35.441Z,98655.97
2019-03-04T10:30:20.523Z,98672.21
2019-03-04T10:33:14.707Z,98651.94
2019-03-04T10:36:05.751Z,98657.72
2019-03-04T10:39:17.782Z,98634.94
2019-03-04T10:42:46.889Z,98642.51
2019-03-04T10:45:53.205Z,98651.61
2019-03-04T10:48:23.417Z,98634.13
2019-03-04T10:50:53.479Z,98639.41
2019-03-04T10:53:23.388Z,98630.48
2019-03-04T10:55:53.466Z,98637.87
2019-03-04T10:58:23.777Z,98638.02
2019-03-04T11:00:53.724Z,98631.23
2019-03-04T11:03:23.862Z,98638.33
2019-03-04T11:05:53.818Z,98652.69
2019-03-04T11:08:23.869Z,98612.98
2019-03-04T11:10:53.834Z,98620.87
2019-03-04T11:13:23.802Z,98637.33
2019-03-04T11:15:53.825Z,98618.75
2019-03-04T11:18:23.798Z,98652.61
2019-03-04T11:20:54.068Z,98647.47
2019-03-04T11:23:25.008Z,98672.25
2019-03-04T11:25:54.982Z,98675.58
2019-03-04T11:28:25.199Z,98694.17
2019-03-04T11:30:55.208Z,98718.67
2019-03-04T11:33:26.278Z,98780.50
2019-03-04T11:35:56.302Z,98859.48
2019-03-04T11:38:37.974Z,98798.17
2019-03-04T11:41:10.148Z,98801.48
2019-03-04T11:43:40.286Z,98799.97
2019-03-04T11:46:11.061Z,98793.48
2019-03-04T11:48:41.415Z,98825.98
2019-03-04T11:51:11.472Z,98845.34
2019-03-04T11:53:41.419Z,98844.88
2019-03-04T11:56:11.379Z,98870.08
2019-03-04T11:58:41.313Z,98849.70
2019-03-04T12:01:14.599Z,98852.29
2019-03-04T12:03:44.596Z,98852.88
2019-03-04T12:06:14.508Z,98867.26
2019-03-04T12:08:44.580Z,98859.30
2019-03-04T12:11:14.527Z,98872.73
2019-03-04T12:13:44.551Z,98880.27
2019-03-04T12:16:14.537Z,98892.03
2019-03-04T12:18:45.582Z,98885.66
2019-03-04T12:21:15.626Z,98902.52
2019-03-04T12:23:45.667Z,98901.75
2019-03-04T12:26:15.647Z,98901.42
2019-03-04T12:28:45.623Z,98913.96
2019-03-04T12:31:15.631Z,98920.42
2019-03-04T12:33:45.584Z,98926.03
2019-03-04T12:36:15.588Z,98953.78
2019-03-04T12:38:45.780Z,98943.77
2019-03-04T12:41:15.688Z,98935.54
2019-03-04T12:43:45.636Z,98932.25
2019-03-04T12:46:15.510Z,98928.70
2019-03-04T12:48:47.230Z,98938.91
2019-03-04T12:51:23.035Z,98957.05
2019-03-04T12:53:49.531Z,98971.25
2019-03-04T12:56:20.248Z,98981.97
2019-03-04T12:58:50.469Z,98977.92
2019-03-04T13:01:20.445Z,98981.92
2019-03-04T13:03:50.386Z,98987.14
2019-03-04T13:06:20.282Z,98991.33
2019-03-04T13:08:50.643Z,99007.14
2019-03-04T13:11:20.590Z,99010.11
2019-03-04T13:13:51.924Z,99022.32
2019-03-04T13:16:21.890Z,99021.23
2019-03-04T13:18:51.861Z,99027.48
2019-03-04T13:21:21.809Z,99024.89
2019-03-04T13:23:51.779Z,99039.98
2019-03-04T13:26:21.724Z,99039.34
2019-03-04T13:28:51.666Z,99046.45
2019-03-04T13:31:21.663Z,99050.39
2019-03-04T13:33:51.614Z,99049.08
2019-03-04T13:36:21.581Z,99064.52
2019-03-04T13:38:51.556Z,99070.83
2019-03-04T13:41:21.522Z,99080.66
2019-03-04T13:43:51.497Z,99093.81
2019-03-04T13:46:21.716Z,99075.41
2019-03-04T13:48:52.644Z,99083.38
2019-03-04T13:51:22.624Z,99085.45
2019-03-04T13:53:53.715Z,99087.79
2019-03-04T13:56:23.569Z,99091.09
2019-03-04T13:58:53.838Z,99102.78
2019-03-04T14:01:24.620Z,99109.97
2019-03-04T14:03:54.683Z,99113.38
2019-03-04T14:06:24.657Z,99121.37
2019-03-04T14:08:56.057Z,99137.28
2019-03-04T14:11:26.124Z,99123.45
2019-03-04T14:13:56.396Z,99121.31
2019-03-04T14:16:27.369Z,99127.91
2019-03-04T14:18:58.787Z,99134.09
2019-03-04T14:21:28.669Z,99144.09
2019-03-04T14:23:58.716Z,99131.86
2019-03-04T14:26:28.691Z,99150.81
2019-03-04T14:29:00.086Z,99165.91
2019-03-04T14:31:30.734Z,99154.31
2019-03-04T14:34:00.684Z,99161.84
2019-03-04T14:36:30.661Z,99153.42
2019-03-04T14:39:00.968Z,99170.84
2019-03-04T14:41:32.592Z,99180.57
2019-03-04T14:44:02.620Z,99181.02
2019-03-04T14:46:33.654Z,99188.09
2019-03-04T14:49:03.674Z,99188.43
2019-03-04T14:51:33.668Z,99192.72
2019-03-04T14:54:03.688Z,99195.05
2019-03-04T14:56:33.749Z,99204.38
2019-03-04T14:59:10.926Z,99212.89
2019-03-04T15:01:35.800Z,99226.95
2019-03-04T15:04:05.801Z,99227.30
2019-03-04T15:06:35.761Z,99247.73
2019-03-04T15:09:10.018Z,99232.41
2019-03-04T15:11:40.415Z,99245.55
2019-03-04T15:14:10.429Z,99248.52
2019-03-04T15:16:40.640Z,99253.40
2019-03-04T15:19:11.783Z,99263.17
2019-03-04T15:21:41.753Z,99266.56
2019-03-04T15:24:12.066Z,99258.84
2019-03-04T15:26:44.265Z,99281.70
2019-03-04T15:29:13.843Z,99286.80
2019-03-04T15:31:43.925Z,99285.75
2019-03-04T15:34:13.932Z,99287.50
2019-03-04T15:36:43.880Z,99296.55
2019-03-04T15:39:22.961Z,99298.99
2019-03-04T15:41:50.183Z,99302.45
2019-03-04T15:44:19.904Z,99305.02
2019-03-04T15:46:49.916Z,99310.25
2019-03-04T15:49:20.181Z,99323.09
2019-03-04T15:51:50.140Z,99315.52
2019-03-04T15:54:20.116Z,99315.14
2019-03-04T15:56:50.172Z,99327.38
2019-03-04T15:59:20.431Z,99324.89
2019-03-04T16:01:50.404Z,99345.63
2019-03-04T16:04:20.385Z,99337.20
2019-03-04T16:06:50.347Z,99336.52
2019-03-04T16:09:21.704Z,99335.84
2019-03-04T16:11:51.677Z,99351.84
2019-03-04T16:14:22.070Z,99349.39
2019-03-04T16:16:51.943Z,99367.39
2019-03-04T16:19:23.621Z,99361.78
2019-03-04T16:21:54.173Z,99369.54
2019-03-04T16:24:25.961Z,99368.52
2019-03-04T16:26:56.581Z,99371.48
2019-03-04T16:29:34.287Z,99376.08
2019-03-04T16:31:59.278Z,99384.23
2019-03-04T16:34:29.909Z,99388.66
2019-03-04T16:37:04.770Z,99383.05
2019-03-04T16:39:34.989Z,99388.12
2019-03-04T16:42:07.926Z,99396.18
2019-03-04T16:44:39.934Z,99386.42
2019-03-04T16:47:10.602Z,99391.65
2019-03-04T16:49:40.963Z,99402.33
2019-03-04T16:52:11.061Z,99411.05
2019-03-04T16:54:41.054Z,99422.50
2019-03-04T16:57:14.399Z,99421.13
2019-03-04T16:59:44.381Z,99430.81
2019-03-04T17:02:14.984Z,99432.22
2019-03-04T17:04:45.423Z,99437.63
2019-03-04T17:07:15.442Z,99441.73
2019-03-04T17:09:45.621Z,99448.94
2019-03-04T17:12:16.221Z,99446.11
2019-03-04T17:14:46.316Z,99440.62
2019-03-04T17:17:16.461Z,99451.83
2019-03-04T17:19:46.497Z,99462.16
2019-03-04T17:22:16.540Z,99464.11
2019-03-04T17:24:46.837Z,99473.45
2019-03-04T17:27:17.142Z,99472.88
2019-03-04T17:29:47.225Z,99477.32
2019-03-04T17:32:17.171Z,99487.84
2019-03-04T17:34:47.187Z,99494.64
2019-03-04T17:37:17.093Z,99504.97
2019-03-04T17:39:48.141Z,99505.59
2019-03-04T17:42:18.004Z,99509.50
2019-03-04T17:44:48.003Z,99516.36
2019-03-04T17:47:18.056Z,99522.24
2019-03-04T17:49:48.008Z,99525.84
2019-03-04T17:52:18.054Z,99525.64
2019-03-04T17:54:48.086Z,99518.37
2019-03-04T17:57:18.483Z,99529.86
2019-03-04T17:59:48.412Z,99529.55
2019-03-04T18:02:18.412Z,99524.56
2019-03-04T18:04:48.953Z,99531.97
2019-03-04T18:07:19.600Z,99540.69
2019-03-04T18:09:49.675Z,99546.92
2019-03-04T18:12:19.661Z,99549.69
2019-03-04T18:14:50.247Z,99552.80
2019-03-04T18:17:20.210Z,99558.06
2019-03-04T18:19:50.569Z,99556.05
2019-03-04T18:22:20.894Z,99565.53
2019-03-04T18:24:50.838Z,99566.16
2019-03-04T18:27:31.541Z,99557.09
2019-03-04T18:30:34.891Z,99562.20
2019-03-04T18:33:36.375Z,99564.45
2019-03-04T18:36:39.456Z,99576.63
2019-03-04T18:39:45.496Z,99581.55
2019-03-04T18:42:52.316Z,99577.25
2019-03-04T18:46:21.248Z,99592.81
2019-03-04T18:49:01.406Z,99588.80
2019-03-04T18:51:32.962Z,99588.80
2019-03-04T18:54:17.671Z,99599.52
2019-03-04T18:56:47.772Z,99596.47
2019-03-04T18:59:17.950Z,99595.77
2019-03-04T19:01:48.004Z,99594.46
2019-03-04T19:04:17.999Z,99612.55
2019-03-04T19:06:48.615Z,99600.64
2019-03-04T19:09:19.290Z,99595.73
2019-03-04T19:11:50.065Z,99596.61
2019-03-04T19:14:20.037Z,99596.34
2019-03-04T19:16:50.041Z,99598.28
2019-03-04T19:19:20.270Z,99594.61
2019-03-04T19:21:50.369Z,99588.86
2019-03-04T19:24:20.533Z,99591.49
2019-03-04T19:26:51.585Z,99600.13
2019-03-04T19:29:21.628Z,99603.11
2019-03-04T19:31:51.670Z,99604.16
2019-03-04T19:34:21.629Z,99609.33
2019-03-04T19:36:51.980Z,99596.53
2019-03-04T19:39:22.239Z,99603.73
2019-03-04T19:41:53.267Z,99605.04
2019-03-04T19:44:23.184Z,99610.64
2019-03-04T19:46:55.171Z,99607.67
2019-03-04T19:49:25.594Z,99617.56
2019-03-04T19:51:55.624Z,99614.94
2019-03-04T19:54:25.791Z,99612.92
2019-03-04T19:56:55.845Z,99615.72
2019-03-04T19:59:25.831Z,99621.45
2019-03-04T20:01:55.861Z,99618.13
2019-03-04T20:04:26.069Z,99619.45
2019-03-04T20:06:56.352Z,99616.81
2019-03-04T20:09:26.751Z,99621.45
2019-03-04T20:11:56.826Z,99618.83
2019-03-04T20:14:26.876Z,99618.83
2019-03-04T20:16:57.194Z,99617.70
2019-03-04T20:19:27.884Z,99613.14
2019-03-04T20:21:57.998Z,99611.95
2019-03-04T20:24:28.120Z,99607.53
2019-03-04T20:26:58.337Z,99615.98
2019-03-04T20:29:28.484Z,99617.99
2019-03-04T20:31:58.613Z,99618.48
2019-03-04T20:34:29.131Z,99621.88
2019-03-04T20:37:00.129Z,99621.40
2019-03-04T20:39:30.123Z,99619.44
2019-03-04T20:42:00.900Z,99615.22
2019-03-04T20:44:32.183Z,99617.93
2019-03-04T20:47:02.269Z,99627.77
2019-03-04T20:49:32.505Z,99628.65
2019-03-04T20:54:53.668Z,99630.80
2019-03-04T20:57:26.652Z,99653.28
2019-03-04T20:59:57.769Z,99673.92
2019-03-04T21:02:29.086Z,99680.25
2019-03-04T21:05:05.180Z,99709.28
2019-03-04T21:07:37.160Z,99699.41
2019-03-04T21:10:10.058Z,99765.91
2019-03-04T21:13:03.055Z,99730.80
2019-03-04T21:15:36.471Z,99727.43
2019-03-04T21:18:09.370Z,99747.50
2019-03-04T21:20:42.751Z,99749.37
2019-03-04T21:23:17.860Z,99751.81
2019-03-04T21:25:56.641Z,99745.30
2019-03-04T21:28:55.217Z,99736.97
2019-03-04T21:31:40.283Z,99738.75
2019-03-04T21:35:03.805Z,99743.25
2019-03-04T21:37:54.547Z,99739.19
2019-03-04T21:40:56.515Z,99737.64
2019-03-04T21:43:37.551Z,99748.00
2019-03-04T21:46:53.706Z,99746.09
2019-03-04T21:49:25.495Z,99752.77
2019-03-04T21:52:34.808Z,99753.55
2019-03-04T21:55:08.438Z,99764.52
2019-03-04T21:57:45.370Z,99740.43
2019-03-04T22:00:25.815Z,99735.85
2019-03-04T22:03:17.970Z,99739.77
2019-03-04T22:05:50.512Z,99743.59
2019-03-04T22:08:20.930Z,99760.87
2019-03-04T22:10:51.319Z,99756.58
2019-03-04T22:13:21.521Z,99762.61
2019-03-04T22:15:51.781Z,99760.45
2019-03-04T22:18:22.173Z,99764.49
2019-03-04T22:20:53.540Z,99769.14
2019-03-04T22:23:23.709Z,99764.02
2019-03-04T22:26:01.564Z,99772.31
2019-03-04T22:28:25.386Z,99769.67
2019-03-04T22:30:55.388Z,99780.88
2019-03-04T22:33:25.673Z,99781.47
2019-03-04T22:35:55.996Z,99778.11
2019-03-04T22:38:26.131Z,99800.27
2019-03-04T22:40:56.146Z,99809.69
2019-03-04T22:43:26.112Z,99789.27
2019-03-04T22:45:56.059Z,99820.41
2019-03-04T22:48:26.121Z,99815.63
2019-03-04T22:50:56.092Z,99810.13
2019-03-04T22:53:27.216Z,99806.27
2019-03-04T22:55:57.610Z,99838.25
2019-03-04T22:58:29.056Z,99819.32
2019-03-04T23:01:35.915Z,99814.42
2019-03-04T23:04:20.635Z,99814.62
2019-03-04T23:07:17.764Z,99816.89
2019-03-04T23:10:10.388Z,99827.27
2019-03-04T23:13:23.225Z,99815.86
2019-03-04T23:15:54.358Z,99818.84
2019-03-04T23:18:24.359Z,99823.73
2019-03-04T23:20:54.298Z,99809.55
2019-03-04T23:23:24.255Z,99825.07
2019-03-04T23:25:56.414Z,99819.34
2019-03-04T23:28:26.552Z,99862.30
2019-03-04T23:30:59.933Z,99828.17
2019-03-04T23:33:29.464Z,99836.05
2019-03-04T23:35:59.778Z,99826.86
2019-03-04T23:38:31.729Z,99828.53
2019-03-04T23:41:01.629Z,99836.41
2019-03-04T23:43:31.556Z,99820.66
2019-03-04T23:46:01.549Z,99818.98
2019-03-04T23:48:31.500Z,99820.41
2019-03-04T23:51:01.805Z,99819.92
2019-03-04T23:53:31.801Z,99822.42
2019-03-04T23:56:01.751Z,99815.28
2019-03-04T23:58:31.628Z,99828.77
